sensor_id;sensor_type;location;lat;lon;timestamp;pressure;altitude;pressure_sealevel;temperature;humidity
14067;BME280;7108;42.684;23.350;2023-11-22T00:02:24;94661.69;;;7.89;100.00
14067;BME280;7108;42.684;23.350;2023-11-22T00:04:54;94667.94;;;7.93;100.00
14067;BME280;7108;42.684;23.350;2023-11-22T00:07:19;94677.22;;;7.99;100.00
14067;BME280;7108;42.684;23.350;2023-11-22T00:09:45;94677.56;;;7.97;100.00
14067;BME280;7108;42.684;23.350;2023-11-22T00:12:12;94685.91;;;8.11;100.00
14067;BME280;7108;42.684;23.350;2023-11-22T00:14:38;94678.28;;;8.13;100.00
14067;BME280;7108;42.684;23.350;2023-11-22T00:17:04;94666.69;;;8.09;100.00
14067;BME280;7108;42.684;23.350;2023-11-22T00:19:30;94657.31;;;8.00;100.00
14067;BME280;7108;42.684;23.350;2023-11-22T00:21:56;94663.19;;;7.86;100.00
14067;BME280;7108;42.684;23.350;2023-11-22T00:24:21;94677.16;;;7.95;100.00
14067;BME280;7108;42.684;23.350;2023-11-22T00:26:46;94681.97;;;8.05;100.00
14067;BME280;7108;42.684;23.350;2023-11-22T00:29:12;94686.31;;;8.13;100.00
14067;BME280;7108;42.684;23.350;2023-11-22T00:31:37;94674.03;;;8.12;100.00
14067;BME280;7108;42.684;23.350;2023-11-22T00:34:03;94671.53;;;8.19;100.00
14067;BME280;7108;42.684;23.350;2023-11-22T00:36:28;94669.03;;;8.11;100.00
14067;BME280;7108;42.684;23.350;2023-11-22T00:38:54;94657.47;;;8.07;100.00
14067;BME280;7108;42.684;23.350;2023-11-22T00:41:19;94671.56;;;8.04;100.00
14067;BME280;7108;42.684;23.350;2023-11-22T00:43:46;94649.41;;;8.07;100.00
14067;BME280;7108;42.684;23.350;2023-11-22T00:46:11;94691.69;;;8.13;100.00
14067;BME280;7108;42.684;23.350;2023-11-22T00:48:36;94660.16;;;8.07;100.00
14067;BME280;7108;42.684;23.350;2023-11-22T00:51:03;94668.41;;;7.98;100.00
14067;BME280;7108;42.684;23.350;2023-11-22T00:53:36;94664.97;;;7.98;100.00
14067;BME280;7108;42.684;23.350;2023-11-22T00:56:03;94692.69;;;8.05;100.00
14067;BME280;7108;42.684;23.350;2023-11-22T00:58:30;94645.59;;;7.89;100.00
14067;BME280;7108;42.684;23.350;2023-11-22T01:00:55;94680.63;;;8.15;100.00
14067;BME280;7108;42.684;23.350;2023-11-22T01:03:21;94656.72;;;8.10;100.00
14067;BME280;7108;42.684;23.350;2023-11-22T01:05:46;94667.63;;;8.17;100.00
14067;BME280;7108;42.684;23.350;2023-11-22T01:08:12;94675.88;;;8.08;100.00
14067;BME280;7108;42.684;23.350;2023-11-22T01:10:39;94652.38;;;8.02;100.00
14067;BME280;7108;42.684;23.350;2023-11-22T01:13:04;94671.53;;;8.19;100.00
14067;BME280;7108;42.684;23.350;2023-11-22T01:15:30;94657.63;;;8.14;100.00
14067;BME280;7108;42.684;23.350;2023-11-22T01:17:55;94651.72;;;8.27;100.00
14067;BME280;7108;42.684;23.350;2023-11-22T01:20:21;94653.41;;;8.35;100.00
14067;BME280;7108;42.684;23.350;2023-11-22T01:22:48;94624.78;;;8.20;100.00
14067;BME280;7108;42.684;23.350;2023-11-22T01:25:14;94621.06;;;8.28;100.00
14067;BME280;7108;42.684;23.350;2023-11-22T01:27:39;94603.81;;;8.07;100.00
14067;BME280;7108;42.684;23.350;2023-11-22T01:30:05;94658.91;;;8.42;100.00
14067;BME280;7108;42.684;23.350;2023-11-22T01:32:33;94635.34;;;8.32;100.00
14067;BME280;7108;42.684;23.350;2023-11-22T01:35:00;94620.78;;;8.33;100.00
14067;BME280;7108;42.684;23.350;2023-11-22T01:37:25;94636.72;;;8.45;100.00
14067;BME280;7108;42.684;23.350;2023-11-22T01:39:51;94626.34;;;8.44;100.00
14067;BME280;7108;42.684;23.350;2023-11-22T01:42:17;94619.84;;;8.45;100.00
14067;BME280;7108;42.684;23.350;2023-11-22T01:44:43;94599.00;;;8.38;100.00
14067;BME280;7108;42.684;23.350;2023-11-22T01:47:08;94611.81;;;8.48;100.00
14067;BME280;7108;42.684;23.350;2023-11-22T01:49:34;94589.75;;;8.36;100.00
14067;BME280;7108;42.684;23.350;2023-11-22T01:52:02;94624.94;;;8.53;100.00
14067;BME280;7108;42.684;23.350;2023-11-22T01:54:28;94620.38;;;8.53;100.00
14067;BME280;7108;42.684;23.350;2023-11-22T01:56:55;94630.03;;;8.58;100.00
14067;BME280;7108;42.684;23.350;2023-11-22T01:59:21;94605.69;;;8.48;100.00
14067;BME280;7108;42.684;23.350;2023-11-22T02:01:47;94625.75;;;8.31;100.00
14067;BME280;7108;42.684;23.350;2023-11-22T02:04:14;94615.91;;;8.39;100.00
14067;BME280;7108;42.684;23.350;2023-11-22T02:06:40;94611.59;;;8.34;100.00
14067;BME280;7108;42.684;23.350;2023-11-22T02:09:06;94596.91;;;8.28;100.00
14067;BME280;7108;42.684;23.350;2023-11-22T02:11:33;94621.88;;;8.51;100.00
14067;BME280;7108;42.684;23.350;2023-11-22T02:13:58;94615.97;;;8.42;100.00
14067;BME280;7108;42.684;23.350;2023-11-22T02:16:24;94604.97;;;8.50;100.00
14067;BME280;7108;42.684;23.350;2023-11-22T02:18:49;94620.38;;;8.53;100.00
14067;BME280;7108;42.684;23.350;2023-11-22T02:21:18;94602.13;;;8.40;100.00
14067;BME280;7108;42.684;23.350;2023-11-22T02:23:43;94602.25;;;8.47;100.00
14067;BME280;7108;42.684;23.350;2023-11-22T02:26:09;94608.13;;;8.56;100.00
14067;BME280;7108;42.684;23.350;2023-11-22T02:28:34;94597.63;;;8.48;100.00
14067;BME280;7108;42.684;23.350;2023-11-22T02:31:00;94590.31;;;8.45;100.00
14067;BME280;7108;42.684;23.350;2023-11-22T02:33:25;94607.66;;;8.50;100.00
14067;BME280;7108;42.684;23.350;2023-11-22T02:35:51;94608.81;;;8.49;100.00
14067;BME280;7108;42.684;23.350;2023-11-22T02:38:16;94605.69;;;8.48;100.00
14067;BME280;7108;42.684;23.350;2023-11-22T02:40:44;94616.78;;;8.46;100.00
14067;BME280;7108;42.684;23.350;2023-11-22T02:43:10;94622.63;;;8.51;100.00
14067;BME280;7108;42.684;23.350;2023-11-22T02:45:36;94613.44;;;8.52;100.00
14067;BME280;7108;42.684;23.350;2023-11-22T02:48:02;94605.22;;;8.42;100.00
14067;BME280;7108;42.684;23.350;2023-11-22T02:50:29;94598.78;;;8.47;100.00
14067;BME280;7108;42.684;23.350;2023-11-22T02:52:57;94591.81;;;8.42;100.00
14067;BME280;7108;42.684;23.350;2023-11-22T02:55:23;94618.69;;;8.46;100.00
14067;BME280;7108;42.684;23.350;2023-11-22T02:57:50;94591.75;;;8.39;100.00
14067;BME280;7108;42.684;23.350;2023-11-22T03:00:16;94588.28;;;8.38;100.00
14067;BME280;7108;42.684;23.350;2023-11-22T03:02:45;94600.56;;;8.39;100.00
14067;BME280;7108;42.684;23.350;2023-11-22T03:05:12;94603.75;;;8.45;100.00
14067;BME280;7108;42.684;23.350;2023-11-22T03:07:38;94607.72;;;8.54;100.00
14067;BME280;7108;42.684;23.350;2023-11-22T03:10:04;94582.44;;;8.33;100.00
14067;BME280;7108;42.684;23.350;2023-11-22T03:12:30;94587.38;;;8.31;100.00
14067;BME280;7108;42.684;23.350;2023-11-22T03:14:55;94621.13;;;8.54;100.00
14067;BME280;7108;42.684;23.350;2023-11-22T03:17:26;94601.94;;;8.30;100.00
14067;BME280;7108;42.684;23.350;2023-11-22T03:19:54;94602.13;;;8.40;100.00
14067;BME280;7108;42.684;23.350;2023-11-22T03:22:21;94602.72;;;8.52;100.00
14067;BME280;7108;42.684;23.350;2023-11-22T03:24:46;94606.81;;;8.47;100.00
14067;BME280;7108;42.684;23.350;2023-11-22T03:27:12;94591.81;;;8.42;100.00
14067;BME280;7108;42.684;23.350;2023-11-22T03:29:38;94625.31;;;8.51;100.00
14067;BME280;7108;42.684;23.350;2023-11-22T03:32:07;94601.28;;;8.36;100.00
14067;BME280;7108;42.684;23.350;2023-11-22T03:34:36;94631.03;;;8.50;100.00
14067;BME280;7108;42.684;23.350;2023-11-22T03:37:02;94634.09;;;8.48;100.00
14067;BME280;7108;42.684;23.350;2023-11-22T03:39:27;94631.78;;;8.47;100.00
14067;BME280;7108;42.684;23.350;2023-11-22T03:41:53;94605.16;;;8.39;100.00
14067;BME280;7108;42.684;23.350;2023-11-22T03:44:18;94582.88;;;8.35;100.00
14067;BME280;7108;42.684;23.350;2023-11-22T03:46:44;94600.56;;;8.39;100.00
14067;BME280;7108;42.684;23.350;2023-11-22T03:49:09;94595.63;;;8.41;100.00
14067;BME280;7108;42.684;23.350;2023-11-22T03:51:35;94587.13;;;8.39;100.00
14067;BME280;7108;42.684;23.350;2023-11-22T03:54:04;94599.25;;;8.52;100.00
14067;BME280;7108;42.684;23.350;2023-11-22T03:56:31;94595.63;;;8.41;100.00
14067;BME280;7108;42.684;23.350;2023-11-22T03:58:56;94605.75;;;8.51;100.00
14067;BME280;7108;42.684;23.350;2023-11-22T04:01:22;94611.50;;;8.49;100.00
14067;BME280;7108;42.684;23.350;2023-11-22T04:03:48;94608.84;;;8.53;100.00
14067;BME280;7108;42.684;23.350;2023-11-22T04:06:15;94607.63;;;8.47;100.00
14067;BME280;7108;42.684;23.350;2023-11-22T04:08:42;94618.13;;;8.55;100.00
14067;BME280;7108;42.684;23.350;2023-11-22T04:11:09;94613.28;;;8.42;100.00
14067;BME280;7108;42.684;23.350;2023-11-22T04:13:35;94624.94;;;8.53;100.00
14067;BME280;7108;42.684;23.350;2023-11-22T04:16:00;94643.09;;;8.59;100.00
14067;BME280;7108;42.684;23.350;2023-11-22T04:18:26;94637.19;;;8.50;100.00
14067;BME280;7108;42.684;23.350;2023-11-22T04:20:52;94638.34;;;8.49;100.00
14067;BME280;7108;42.684;23.350;2023-11-22T04:23:17;94623.22;;;8.42;100.00
14067;BME280;7108;42.684;23.350;2023-11-22T04:25:43;94651.75;;;8.49;100.00
14067;BME280;7108;42.684;23.350;2023-11-22T04:28:09;94653.19;;;8.44;100.00
14067;BME280;7108;42.684;23.350;2023-11-22T04:30:35;94661.69;;;8.49;100.00
14067;BME280;7108;42.684;23.350;2023-11-22T04:33:00;94662.97;;;8.55;100.00
14067;BME280;7108;42.684;23.350;2023-11-22T04:35:27;94677.50;;;8.54;100.00
14067;BME280;7108;42.684;23.350;2023-11-22T04:37:52;94683.38;;;8.59;100.00
14067;BME280;7108;42.684;23.350;2023-11-22T04:40:20;94672.63;;;8.59;100.00
14067;BME280;7108;42.684;23.350;2023-11-22T04:42:46;94675.25;;;8.56;100.00
14067;BME280;7108;42.684;23.350;2023-11-22T04:45:11;94668.75;;;8.57;100.00
14067;BME280;7108;42.684;23.350;2023-11-22T04:47:39;94660.28;;;8.55;100.00
14067;BME280;7108;42.684;23.350;2023-11-22T04:50:05;94660.50;;;8.47;100.00
14067;BME280;7108;42.684;23.350;2023-11-22T04:52:32;94666.38;;;8.52;100.00
14067;BME280;7108;42.684;23.350;2023-11-22T04:54:57;94684.72;;;8.50;100.00
14067;BME280;7108;42.684;23.350;2023-11-22T04:57:23;94685.22;;;8.55;100.00
14067;BME280;7108;42.684;23.350;2023-11-22T04:59:48;94683.53;;;8.48;100.00
14067;BME280;7108;42.684;23.350;2023-11-22T05:02:14;94718.28;;;8.59;100.00
14067;BME280;7108;42.684;23.350;2023-11-22T05:04:39;94724.84;;;8.62;100.00
14067;BME280;7108;42.684;23.350;2023-11-22T05:07:05;94675.25;;;8.34;100.00
14067;BME280;7108;42.684;23.350;2023-11-22T05:09:30;94684.34;;;8.29;100.00
14067;BME280;7108;42.684;23.350;2023-11-22T05:11:56;94739.03;;;8.62;100.00
14067;BME280;7108;42.684;23.350;2023-11-22T05:14:21;94732.97;;;8.65;100.00
14067;BME280;7108;42.684;23.350;2023-11-22T05:16:46;94691.47;;;8.41;100.00
14067;BME280;7108;42.684;23.350;2023-11-22T05:19:12;94727.09;;;8.60;100.00
14067;BME280;7108;42.684;23.350;2023-11-22T05:21:37;94726.03;;;8.64;100.00
14067;BME280;7108;42.684;23.350;2023-11-22T05:24:03;94736.13;;;8.71;100.00
14067;BME280;7108;42.684;23.350;2023-11-22T05:26:28;94738.44;;;8.72;100.00
14067;BME280;7108;42.684;23.350;2023-11-22T05:28:53;94753.44;;;8.73;100.00
14067;BME280;7108;42.684;23.350;2023-11-22T05:31:20;94752.16;;;8.67;100.00
14067;BME280;7108;42.684;23.350;2023-11-22T05:33:46;94745.19;;;8.63;100.00
14067;BME280;7108;42.684;23.350;2023-11-22T05:36:11;94749.84;;;8.66;100.00
14067;BME280;7108;42.684;23.350;2023-11-22T05:38:37;94760.38;;;8.74;100.00
14067;BME280;7108;42.684;23.350;2023-11-22T05:41:03;94779.63;;;8.80;100.00
14067;BME280;7108;42.684;23.350;2023-11-22T05:43:28;94762.56;;;8.69;100.00
14067;BME280;7108;42.684;23.350;2023-11-22T05:45:54;94777.81;;;8.84;100.00
14067;BME280;7108;42.684;23.350;2023-11-22T05:48:20;94729.91;;;8.45;100.00
14067;BME280;7108;42.684;23.350;2023-11-22T05:50:46;94769.56;;;8.73;100.00
14067;BME280;7108;42.684;23.350;2023-11-22T05:53:12;94767.44;;;8.63;100.00
14067;BME280;7108;42.684;23.350;2023-11-22T05:55:37;94789.47;;;8.72;100.00
14067;BME280;7108;42.684;23.350;2023-11-22T05:58:04;94798.19;;;8.66;100.00
14067;BME280;7108;42.684;23.350;2023-11-22T06:00:29;94775.06;;;8.61;100.00
14067;BME280;7108;42.684;23.350;2023-11-22T06:02:54;94789.06;;;8.70;100.00
14067;BME280;7108;42.684;23.350;2023-11-22T06:05:21;94775.50;;;8.63;100.00
14067;BME280;7108;42.684;23.350;2023-11-22T06:07:46;94783.28;;;8.68;100.00
14067;BME280;7108;42.684;23.350;2023-11-22T06:10:13;94796.41;;;8.73;100.00
14067;BME280;7108;42.684;23.350;2023-11-22T06:12:41;94789.41;;;8.69;100.00
14067;BME280;7108;42.684;23.350;2023-11-22T06:15:07;94808.88;;;8.85;100.00
14067;BME280;7108;42.684;23.350;2023-11-22T06:17:33;94830.94;;;8.94;100.00
14067;BME280;7108;42.684;23.350;2023-11-22T06:19:58;94832.78;;;8.90;100.00
14067;BME280;7108;42.684;23.350;2023-11-22T06:22:23;94820.28;;;8.78;100.00
14067;BME280;7108;42.684;23.350;2023-11-22T06:24:49;94821.91;;;8.83;100.00
14067;BME280;7108;42.684;23.350;2023-11-22T06:27:14;94813.84;;;8.83;100.00
14067;BME280;7108;42.684;23.350;2023-11-22T06:29:43;94852.44;;;8.94;100.00
14067;BME280;7108;42.684;23.350;2023-11-22T06:32:12;94837.75;;;8.88;100.00
14067;BME280;7108;42.684;23.350;2023-11-22T06:34:37;94823.59;;;8.91;100.00
14067;BME280;7108;42.684;23.350;2023-11-22T06:37:03;94849.25;;;9.07;100.00
14067;BME280;7108;42.684;23.350;2023-11-22T06:39:29;94838.50;;;9.07;100.00
14067;BME280;7108;42.684;23.350;2023-11-22T06:41:54;94826.81;;;9.00;100.00
14067;BME280;7108;42.684;23.350;2023-11-22T06:44:20;94834.88;;;9.00;100.00
14067;BME280;7108;42.684;23.350;2023-11-22T06:46:46;94842.66;;;9.05;100.00
14067;BME280;7108;42.684;23.350;2023-11-22T06:49:11;94868.06;;;9.07;100.00
14067;BME280;7108;42.684;23.350;2023-11-22T06:51:37;94871.59;;;8.92;100.00
14067;BME280;7108;42.684;23.350;2023-11-22T06:54:02;94853.56;;;8.93;100.00
14067;BME280;7108;42.684;23.350;2023-11-22T06:56:28;94863.38;;;9.04;100.00
14067;BME280;7108;42.684;23.350;2023-11-22T06:58:54;94850.31;;;9.03;100.00
14067;BME280;7108;42.684;23.350;2023-11-22T07:01:22;94843.00;;;9.03;100.00
14067;BME280;7108;42.684;23.350;2023-11-22T07:03:49;94877.56;;;9.23;100.00
14067;BME280;7108;42.684;23.350;2023-11-22T07:06:14;94838.00;;;9.02;100.00
14067;BME280;7108;42.684;23.350;2023-11-22T07:08:40;94872.47;;;9.18;100.00
14067;BME280;7108;42.684;23.350;2023-11-22T07:11:06;94881.00;;;9.24;100.00
14067;BME280;7108;42.684;23.350;2023-11-22T07:13:34;94871.66;;;9.14;100.00
14067;BME280;7108;42.684;23.350;2023-11-22T07:16:01;94897.28;;;9.31;100.00
14067;BME280;7108;42.684;23.350;2023-11-22T07:18:29;94887.66;;;9.30;100.00
14067;BME280;7108;42.684;23.350;2023-11-22T07:20:54;94861.28;;;9.16;100.00
14067;BME280;7108;42.684;23.350;2023-11-22T07:23:20;94868.38;;;9.24;100.00
14067;BME280;7108;42.684;23.350;2023-11-22T07:25:50;94864.59;;;9.29;100.00
14067;BME280;7108;42.684;23.350;2023-11-22T07:28:16;94893.28;;;9.44;100.00
14067;BME280;7108;42.684;23.350;2023-11-22T07:30:41;94891.75;;;9.43;100.00
14067;BME280;7108;42.684;23.350;2023-11-22T07:33:07;94878.59;;;9.38;100.00
14067;BME280;7108;42.684;23.350;2023-11-22T07:35:33;94878.75;;;9.26;100.00
14067;BME280;7108;42.684;23.350;2023-11-22T07:37:59;94879.22;;;9.31;100.00
14067;BME280;7108;42.684;23.350;2023-11-22T07:40:24;94901.69;;;9.42;100.00
14067;BME280;7108;42.684;23.350;2023-11-22T07:42:49;94904.56;;;9.30;100.00
14067;BME280;7108;42.684;23.350;2023-11-22T07:45:15;94884.78;;;9.19;100.00
14067;BME280;7108;42.684;23.350;2023-11-22T07:47:41;94899.25;;;9.34;100.00
14067;BME280;7108;42.684;23.350;2023-11-22T07:50:09;94886.16;;;9.32;100.00
14067;BME280;7108;42.684;23.350;2023-11-22T07:52:35;94896.25;;;9.39;100.00
14067;BME280;7108;42.684;23.350;2023-11-22T07:55:01;94881.16;;;9.31;100.00
14067;BME280;7108;42.684;23.350;2023-11-22T07:57:27;94912.66;;;9.53;100.00
14067;BME280;7108;42.684;23.350;2023-11-22T07:59:52;94909.84;;;9.46;100.00
14067;BME280;7108;42.684;23.350;2023-11-22T08:02:21;94915.41;;;9.56;100.00
14067;BME280;7108;42.684;23.350;2023-11-22T08:04:46;94910.03;;;9.56;100.00
14067;BME280;7108;42.684;23.350;2023-11-22T08:07:13;94912.72;;;9.56;100.00
14067;BME280;7108;42.684;23.350;2023-11-22T08:09:43;94879.19;;;9.50;100.00
14067;BME280;7108;42.684;23.350;2023-11-22T08:12:08;94913.97;;;9.62;100.00
14067;BME280;7108;42.684;23.350;2023-11-22T08:14:36;94913.66;;;9.67;100.00
14067;BME280;7108;42.684;23.350;2023-11-22T08:17:05;94892.28;;;9.52;100.00
14067;BME280;7108;42.684;23.350;2023-11-22T08:19:31;94902.38;;;9.58;100.00
14067;BME280;7108;42.684;23.350;2023-11-22T08:21:56;94892.44;;;9.62;100.00
14067;BME280;7108;42.684;23.350;2023-11-22T08:24:22;94920.59;;;9.68;100.00
14067;BME280;7108;42.684;23.350;2023-11-22T08:26:47;94924.53;;;9.74;100.00
14067;BME280;7108;42.684;23.350;2023-11-22T08:29:13;94917.28;;;9.75;100.00
14067;BME280;7108;42.684;23.350;2023-11-22T08:31:39;94929.38;;;9.87;100.00
14067;BME280;7108;42.684;23.350;2023-11-22T08:34:05;94918.94;;;9.82;100.00
14067;BME280;7108;42.684;23.350;2023-11-22T08:36:32;94925.44;;;9.81;100.00
14067;BME280;7108;42.684;23.350;2023-11-22T08:39:02;94925.03;;;9.79;100.00
14067;BME280;7108;42.684;23.350;2023-11-22T08:41:33;94929.31;;;9.84;100.00
14067;BME280;7108;42.684;23.350;2023-11-22T08:43:59;94921.50;;;9.76;100.00
14067;BME280;7108;42.684;23.350;2023-11-22T08:46:25;94927.25;;;9.74;100.00
14067;BME280;7108;42.684;23.350;2023-11-22T08:48:51;94922.97;;;9.73;100.00
14067;BME280;7108;42.684;23.350;2023-11-22T08:51:17;94910.69;;;9.72;100.00
14067;BME280;7108;42.684;23.350;2023-11-22T08:53:43;94918.78;;;9.72;100.00
14067;BME280;7108;42.684;23.350;2023-11-22T08:56:10;94923.88;;;9.80;100.00
14067;BME280;7108;42.684;23.350;2023-11-22T08:58:39;94910.03;;;9.78;100.00
14067;BME280;7108;42.684;23.350;2023-11-22T09:01:05;94926.22;;;9.82;100.00
14067;BME280;7108;42.684;23.350;2023-11-22T09:03:32;94920.38;;;9.77;100.00
14067;BME280;7108;42.684;23.350;2023-11-22T09:05:58;94916.25;;;9.82;100.00
14067;BME280;7108;42.684;23.350;2023-11-22T09:08:23;94912.66;;;9.75;100.00
14067;BME280;7108;42.684;23.350;2023-11-22T09:10:49;94937.81;;;9.86;100.00
14067;BME280;7108;42.684;23.350;2023-11-22T09:13:16;94961.16;;;10.01;100.00
14067;BME280;7108;42.684;23.350;2023-11-22T09:15:42;94935.53;;;9.66;100.00
14067;BME280;7108;42.684;23.350;2023-11-22T09:18:10;94933.41;;;9.75;100.00
14067;BME280;7108;42.684;23.350;2023-11-22T09:20:35;94955.03;;;9.81;100.00
14067;BME280;7108;42.684;23.350;2023-11-22T09:23:01;94972.28;;;9.77;100.00
14067;BME280;7108;42.684;23.350;2023-11-22T09:25:28;94960.38;;;9.37;100.00
14067;BME280;7108;42.684;23.350;2023-11-22T09:27:55;94972.88;;;9.48;100.00
14067;BME280;7108;42.684;23.350;2023-11-22T09:30:23;94973.31;;;9.31;100.00
14067;BME280;7108;42.684;23.350;2023-11-22T09:32:59;94962.28;;;9.17;100.00
14067;BME280;7108;42.684;23.350;2023-11-22T09:35:24;94979.50;;;9.32;100.00
14067;BME280;7108;42.684;23.350;2023-11-22T09:37:51;94971.34;;;9.28;100.00
14067;BME280;7108;42.684;23.350;2023-11-22T09:40:19;94961.88;;;9.34;100.00
14067;BME280;7108;42.684;23.350;2023-11-22T09:42:47;94977.13;;;9.49;100.00
14067;BME280;7108;42.684;23.350;2023-11-22T09:45:17;94987.38;;;9.63;100.00
14067;BME280;7108;42.684;23.350;2023-11-22T09:47:44;94956.28;;;9.43;100.00
14067;BME280;7108;42.684;23.350;2023-11-22T09:53:00;94960.25;;;9.71;100.00
14067;BME280;7108;42.684;23.350;2023-11-22T09:55:28;94930.38;;;9.57;100.00
14067;BME280;7108;42.684;23.350;2023-11-22T09:57:57;94942.69;;;9.77;100.00
14067;BME280;7108;42.684;23.350;2023-11-22T10:00:24;94940.97;;;9.91;100.00
14067;BME280;7108;42.684;23.350;2023-11-22T10:02:52;94946.16;;;10.00;100.00
14067;BME280;7108;42.684;23.350;2023-11-22T10:05:19;94962.81;;;10.09;100.00
14067;BME280;7108;42.684;23.350;2023-11-22T10:07:46;94973.03;;;10.22;100.00
14067;BME280;7108;42.684;23.350;2023-11-22T10:10:14;94950.63;;;10.15;100.00
14067;BME280;7108;42.684;23.350;2023-11-22T10:12:42;94939.03;;;10.11;100.00
14067;BME280;7108;42.684;23.350;2023-11-22T10:15:12;94949.13;;;10.17;100.00
14067;BME280;7108;42.684;23.350;2023-11-22T10:17:37;94941.53;;;10.23;100.00
14067;BME280;7108;42.684;23.350;2023-11-22T10:20:03;94937.72;;;10.27;100.00
14067;BME280;7108;42.684;23.350;2023-11-22T10:22:29;94943.19;;;10.31;100.00
14067;BME280;7108;42.684;23.350;2023-11-22T10:24:58;94951.94;;;10.50;100.00
14067;BME280;7108;42.684;23.350;2023-11-22T10:27:26;94955.25;;;10.40;100.00
14067;BME280;7108;42.684;23.350;2023-11-22T10:29:51;94967.16;;;10.39;100.00
14067;BME280;7108;42.684;23.350;2023-11-22T10:32:17;94931.69;;;10.34;100.00
14067;BME280;7108;42.684;23.350;2023-11-22T10:34:43;94931.03;;;10.40;100.00
14067;BME280;7108;42.684;23.350;2023-11-22T10:37:09;94947.75;;;10.52;100.00
14067;BME280;7108;42.684;23.350;2023-11-22T10:39:35;94936.03;;;10.42;100.00
14067;BME280;7108;42.684;23.350;2023-11-22T10:42:03;94947.78;;;10.56;100.00
14067;BME280;7108;42.684;23.350;2023-11-22T10:44:32;94956.00;;;10.66;100.00
14067;BME280;7108;42.684;23.350;2023-11-22T10:46:59;94960.78;;;10.76;100.00
14067;BME280;7108;42.684;23.350;2023-11-22T10:49:26;94952.94;;;10.64;100.00
14067;BME280;7108;42.684;23.350;2023-11-22T10:51:52;94950.69;;;10.70;100.00
14067;BME280;7108;42.684;23.350;2023-11-22T10:54:20;94954.34;;;10.84;100.00
14067;BME280;7108;42.684;23.350;2023-11-22T10:56:53;94931.44;;;10.71;100.00
14067;BME280;7108;42.684;23.350;2023-11-22T10:59:22;94937.25;;;10.73;100.00
14067;BME280;7108;42.684;23.350;2023-11-22T11:01:49;94954.03;;;10.89;100.00
14067;BME280;7108;42.684;23.350;2023-11-22T11:04:24;94940.88;;;10.84;100.00
14067;BME280;7108;42.684;23.350;2023-11-22T11:06:54;94957.25;;;11.02;100.00
14067;BME280;7108;42.684;23.350;2023-11-22T11:09:22;94943.34;;;10.96;100.00
14067;BME280;7108;42.684;23.350;2023-11-22T11:11:52;94951.44;;;10.96;100.00
14067;BME280;7108;42.684;23.350;2023-11-22T11:14:18;94933.09;;;10.79;100.00
14067;BME280;7108;42.684;23.350;2023-11-22T11:16:45;94942.31;;;10.78;100.00
14067;BME280;7108;42.684;23.350;2023-11-22T11:19:15;94942.75;;;10.80;100.00
14067;BME280;7108;42.684;23.350;2023-11-22T11:21:47;94950.03;;;10.80;100.00
14067;BME280;7108;42.684;23.350;2023-11-22T11:24:13;94951.66;;;10.84;100.00
14067;BME280;7108;42.684;23.350;2023-11-22T11:26:39;94940.72;;;10.74;100.00
14067;BME280;7108;42.684;23.350;2023-11-22T11:29:04;94941.59;;;10.81;100.00
14067;BME280;7108;42.684;23.350;2023-11-22T11:31:32;94950.53;;;10.85;100.00
14067;BME280;7108;42.684;23.350;2023-11-22T11:34:00;94949.81;;;10.92;100.00
14067;BME280;7108;42.684;23.350;2023-11-22T11:36:28;94950.59;;;10.92;100.00
14067;BME280;7108;42.684;23.350;2023-11-22T11:38:55;94945.66;;;10.98;100.00
14067;BME280;7108;42.684;23.350;2023-11-22T11:41:29;94940.22;;;10.94;100.00
14067;BME280;7108;42.684;23.350;2023-11-22T11:43:56;94942.22;;;11.01;100.00
14067;BME280;7108;42.684;23.350;2023-11-22T11:46:22;94954.66;;;11.09;100.00
14067;BME280;7108;42.684;23.350;2023-11-22T11:48:49;94955.91;;;11.14;100.00
14067;BME280;7108;42.684;23.350;2023-11-22T11:51:28;94922.66;;;11.04;100.00
14067;BME280;7108;42.684;23.350;2023-11-22T11:53:55;94947.41;;;11.12;100.00
14067;BME280;7108;42.684;23.350;2023-11-22T11:56:21;94942.75;;;11.13;100.00
14067;BME280;7108;42.684;23.350;2023-11-22T11:58:49;94928.84;;;11.08;100.00
14067;BME280;7108;42.684;23.350;2023-11-22T12:01:15;94953.38;;;11.28;100.00
14067;BME280;7108;42.684;23.350;2023-11-22T12:03:47;94954.94;;;11.29;100.00
14067;BME280;7108;42.684;23.350;2023-11-22T12:06:17;94936.59;;;11.12;100.00
14067;BME280;7108;42.684;23.350;2023-11-22T12:08:43;94956.34;;;11.20;100.00
14067;BME280;7108;42.684;23.350;2023-11-22T12:11:09;94959.09;;;11.23;100.00
14067;BME280;7108;42.684;23.350;2023-11-22T12:13:38;94949.81;;;11.21;100.00
14067;BME280;7108;42.684;23.350;2023-11-22T12:16:07;94973.88;;;11.36;100.00
14067;BME280;7108;42.684;23.350;2023-11-22T12:18:54;94955.56;;;11.19;100.00
14067;BME280;7108;42.684;23.350;2023-11-22T12:21:20;94966.38;;;11.23;100.00
14067;BME280;7108;42.684;23.350;2023-11-22T12:23:47;94958.59;;;11.14;100.00
14067;BME280;7108;42.684;23.350;2023-11-22T12:26:14;94971.44;;;11.28;100.00
14067;BME280;7108;42.684;23.350;2023-11-22T12:28:40;94977.16;;;11.23;100.00
14067;BME280;7108;42.684;23.350;2023-11-22T12:31:10;94950.78;;;11.06;100.00
14067;BME280;7108;42.684;23.350;2023-11-22T12:33:40;94977.44;;;11.11;100.00
14067;BME280;7108;42.684;23.350;2023-11-22T12:36:07;94961.91;;;11.01;100.00
14067;BME280;7108;42.684;23.350;2023-11-22T12:38:35;94996.75;;;11.16;100.00
14067;BME280;7108;42.684;23.350;2023-11-22T12:41:00;94988.22;;;11.11;100.00
14067;BME280;7108;42.684;23.350;2023-11-22T12:43:28;94993.56;;;11.08;100.00
14067;BME280;7108;42.684;23.350;2023-11-22T12:46:05;94976.63;;;11.10;100.00
14067;BME280;7108;42.684;23.350;2023-11-22T12:48:38;94979.31;;;11.10;100.00
14067;BME280;7108;42.684;23.350;2023-11-22T12:51:14;95010.75;;;11.29;100.00
14067;BME280;7108;42.684;23.350;2023-11-22T12:53:40;94995.56;;;11.14;100.00
14067;BME280;7108;42.684;23.350;2023-11-22T12:56:06;94993.56;;;11.08;100.00
14067;BME280;7108;42.684;23.350;2023-11-22T12:58:32;95009.84;;;11.18;100.00